Congresbury, United Kingdom
Current Conditions -  °F | °C
As of 5:20 PM on Tuesday 21 Oct 2014 (Local Time) from EGGD Reporting Station
Few Clouds Few Clouds  
Wind Chill: 50°   Ceiling: Unl
Heat Index: 50°   Visibility: 6mi
Dew Point: 37°   Wind: 25mph
Humidity: 62%   Direction: 280°W
Pressure: 29.97"   Gusts: 41mph
Location:  51.37°N, 2.81°W
Report Text: EGGD 211620Z 28022G36KT 9999 FEW028 10/03 Q1015
Loading
Personal Weather Stations






























Interactive Weather Map
Tropical Storm Tracking
New forecast layout! Learn more

10-Day Weather Forecast

Advertisements
Track Severe Weather on mobile